Time;durP1;ratioP1;P1;durP2;ratioP2;P2;SDS_P1;SDS_P2;PMS_P1;PMS_P2;Temp;Humidity;BMP_temperature;BMP_pressure;BME280_temperature;BME280_humidity;BME280_pressure;Samples;Min_cycle;Max_cycle;Signal;HPM_P1;HPM_P2
2023/01/18 00:01:06;;;;;;;3.37;3.07;;;3.50;80.40;;;;;;923232;153;27496;-82
2023/01/18 00:03:33;;;;;;;3.77;3.30;;;3.50;80.40;;;;;;921270;153;27459;-81
2023/01/18 00:06:00;;;;;;;3.70;3.20;;;3.50;80.40;;;;;;924476;153;27424;-83
2023/01/18 00:08:26;;;;;;;4.13;3.17;;;3.50;80.40;;;;;;921365;153;27389;-83
2023/01/18 00:10:53;;;;;;;3.40;2.93;;;3.50;81.10;;;;;;922462;153;27354;-83
2023/01/18 00:13:19;;;;;;;3.50;3.03;;;3.50;80.50;;;;;;924017;153;27416;-82
2023/01/18 00:15:46;;;;;;;4.53;3.67;;;3.50;80.40;;;;;;926257;153;27391;-83
2023/01/18 00:18:12;;;;;;;3.30;2.97;;;3.60;80.40;;;;;;921102;153;27472;-82
2023/01/18 00:20:39;;;;;;;4.83;3.13;;;3.60;80.30;;;;;;927816;150;27475;-83
2023/01/18 00:23:05;;;;;;;3.47;3.17;;;3.60;80.30;;;;;;932315;150;27367;-83
2023/01/18 00:25:32;;;;;;;4.93;3.50;;;3.60;80.40;;;;;;932020;151;27361;-81
2023/01/18 00:27:59;;;;;;;5.07;3.17;;;3.60;80.30;;;;;;931539;150;27390;-81
2023/01/18 00:30:25;;;;;;;3.87;3.47;;;3.60;80.30;;;;;;931065;151;27988;-82
2023/01/18 00:32:52;;;;;;;3.50;3.20;;;3.60;80.30;;;;;;930569;151;27310;-82
2023/01/18 00:35:20;;;;;;;3.90;3.10;;;3.60;80.30;;;;;;931132;151;27371;-80
2023/01/18 00:37:45;;;;;;;3.50;3.20;;;3.60;80.40;;;;;;930017;151;27389;-79
2023/01/18 00:40:12;;;;;;;4.70;3.33;;;3.60;80.40;;;;;;931397;150;27390;-82
2023/01/18 00:45:23;;;;;;;4.70;3.90;;;3.60;80.40;;;;;;906858;154;27322;-81
2023/01/18 00:47:49;;;;;;;3.80;3.40;;;3.60;80.40;;;;;;907724;154;27679;-80
2023/01/18 00:50:16;;;;;;;4.10;3.70;;;3.60;80.40;;;;;;914808;151;27467;-79
2023/01/18 00:52:45;;;;;;;4.97;3.73;;;3.60;80.40;;;;;;930994;151;27349;-82
2023/01/18 00:55:11;;;;;;;4.20;3.40;;;3.60;80.40;;;;;;930164;151;27374;-81
2023/01/18 00:57:35;;;;;;;4.23;3.50;;;3.60;80.50;;;;;;931180;150;27365;-81
2023/01/18 01:00:02;;;;;;;4.20;3.80;;;3.60;80.40;;;;;;931162;151;27386;-79
2023/01/18 01:02:29;;;;;;;6.80;3.80;;;3.60;80.50;;;;;;930867;151;27520;-82
2023/01/18 01:07:40;;;;;;;3.43;3.10;;;3.60;80.60;;;;;;931684;151;27451;-81
2023/01/18 01:10:07;;;;;;;3.27;2.97;;;3.50;80.40;;;;;;932060;151;27380;-80
2023/01/18 01:26:16;;;;;;;3.77;3.20;;;3.50;80.80;;;;;;932386;151;27442;-80
2023/01/18 01:28:45;;;;;;;3.63;3.20;;;3.50;81.20;;;;;;932335;151;27442;-83
2023/01/18 01:31:12;;;;;;;3.73;3.20;;;3.50;81.00;;;;;;932198;151;27338;-81
2023/01/18 01:33:38;;;;;;;3.37;3.00;;;3.50;81.00;;;;;;932975;151;27383;-79
2023/01/18 01:36:05;;;;;;;3.77;3.27;;;3.50;81.00;;;;;;933293;151;27385;-82
2023/01/18 01:38:32;;;;;;;3.63;3.30;;;3.50;81.10;;;;;;931663;151;27425;-82
2023/01/18 01:41:01;;;;;;;3.17;2.93;;;3.50;81.00;;;;;;934011;151;27709;-82
2023/01/18 01:43:46;;;;;;;5.33;3.17;;;3.50;81.20;;;;;;933071;151;27299;-81
2023/01/18 01:46:15;;;;;;;5.57;3.10;;;3.50;81.20;;;;;;932537;151;27376;-81
2023/01/18 01:48:41;;;;;;;4.67;3.63;;;3.50;81.20;;;;;;932409;151;27338;-82
2023/01/18 01:51:08;;;;;;;3.47;3.17;;;3.50;81.20;;;;;;932686;151;27299;-82
2023/01/18 01:53:35;;;;;;;3.53;3.23;;;3.50;81.30;;;;;;933190;151;27361;-81
2023/01/18 01:56:03;;;;;;;5.23;3.47;;;3.50;81.40;;;;;;933589;149;27497;-81
2023/01/18 01:58:28;;;;;;;3.67;3.37;;;3.50;81.40;;;;;;932964;151;28406;-81
2023/01/18 02:00:54;;;;;;;4.00;3.60;;;3.60;81.50;;;;;;934368;151;27290;-81
2023/01/18 02:03:21;;;;;;;3.47;3.17;;;3.60;81.50;;;;;;932351;151;27327;-81
2023/01/18 02:05:48;;;;;;;3.70;3.40;;;3.60;81.50;;;;;;932378;151;27362;-79
2023/01/18 02:08:21;;;;;;;3.73;3.30;;;3.60;81.40;;;;;;931601;151;27459;-81
2023/01/18 02:10:41;;;;;;;3.53;3.10;;;3.60;81.40;;;;;;932556;151;27432;-79
2023/01/18 02:13:07;;;;;;;3.90;3.50;;;3.60;81.40;;;;;;932709;151;27357;-81
2023/01/18 02:15:39;;;;;;;4.00;3.60;;;3.60;81.40;;;;;;933515;150;27374;-81
2023/01/18 02:18:12;;;;;;;4.13;3.73;;;3.60;81.50;;;;;;933388;151;27390;-82
2023/01/18 02:20:44;;;;;;;3.80;3.40;;;3.70;81.60;;;;;;932772;150;27866;-82
2023/01/18 02:23:29;;;;;;;6.63;3.77;;;3.60;81.40;;;;;;934821;150;27402;-81
2023/01/18 02:26:19;;;;;;;3.43;3.13;;;3.70;81.60;;;;;;934578;150;27388;-82
2023/01/18 02:28:46;;;;;;;2.87;2.60;;;3.70;81.50;;;;;;934960;150;27357;-83
2023/01/18 02:31:18;;;;;;;3.53;3.23;;;3.70;81.50;;;;;;934152;150;27432;-82
2023/01/18 02:33:54;;;;;;;3.50;2.93;;;3.70;81.50;;;;;;936197;150;27455;-82
2023/01/18 02:36:26;;;;;;;3.27;2.97;;;3.70;81.50;;;;;;935079;150;27385;-82
2023/01/18 02:38:55;;;;;;;3.30;3.00;;;3.70;81.50;;;;;;935142;150;27444;-82
2023/01/18 02:41:22;;;;;;;4.23;3.17;;;3.70;81.50;;;;;;934885;150;27345;-83
2023/01/18 02:46:33;;;;;;;4.23;3.50;;;3.70;81.50;;;;;;919267;153;27434;-80
2023/01/18 02:49:09;;;;;;;4.87;3.60;;;3.70;81.60;;;;;;892892;156;27418;-81
2023/01/18 02:51:35;;;;;;;3.97;3.57;;;3.70;81.80;;;;;;915928;154;27418;-82
2023/01/18 02:54:02;;;;;;;4.10;3.70;;;3.70;81.80;;;;;;905256;156;27498;-81
2023/01/18 02:56:38;;;;;;;4.43;3.17;;;3.70;81.70;;;;;;904041;156;27406;-80
2023/01/18 02:59:10;;;;;;;3.43;3.10;;;3.70;81.70;;;;;;903485;156;27431;-81
2023/01/18 03:01:55;;;;;;;3.63;3.27;;;3.70;81.70;;;;;;899422;156;27409;-82
2023/01/18 03:04:22;;;;;;;3.87;2.90;;;3.70;81.80;;;;;;903201;156;27403;-82
2023/01/18 03:06:50;;;;;;;3.50;3.20;;;3.80;81.80;;;;;;902478;156;28604;-82
2023/01/18 03:09:17;;;;;;;3.77;3.00;;;3.80;81.90;;;;;;904813;156;27420;-79
2023/01/18 03:11:50;;;;;;;3.13;2.53;;;3.80;81.80;;;;;;903196;156;27523;-82
2023/01/18 03:14:23;;;;;;;7.60;3.13;;;3.80;81.90;;;;;;917076;153;27434;-82
2023/01/18 03:17:04;;;;;;;3.87;3.10;;;3.80;81.90;;;;;;918625;153;27384;-83
2023/01/18 03:22:16;;;;;;;3.37;3.07;;;3.90;82.00;;;;;;916968;153;27535;-82
2023/01/18 03:24:42;;;;;;;2.80;2.60;;;3.90;81.90;;;;;;914636;154;27454;-82
2023/01/18 03:35:25;;;;;;;4.17;2.97;;;3.90;82.00;;;;;;931114;151;27491;-82
2023/01/18 03:37:53;;;;;;;2.87;2.67;;;3.90;82.00;;;;;;930427;149;27355;-83
2023/01/18 03:40:19;;;;;;;3.07;2.60;;;3.90;82.00;;;;;;931340;150;27335;-80
2023/01/18 03:42:55;;;;;;;4.67;3.10;;;4.00;82.00;;;;;;930256;151;27481;-80
2023/01/18 03:45:21;;;;;;;3.47;3.17;;;4.00;82.10;;;;;;930483;151;27381;-78
2023/01/18 03:47:49;;;;;;;3.40;3.10;;;4.00;82.00;;;;;;929858;151;27460;-78
2023/01/18 03:50:14;;;;;;;3.30;2.90;;;4.00;82.00;;;;;;932888;151;27406;-78
2023/01/18 03:52:41;;;;;;;3.17;2.87;;;4.00;82.00;;;;;;932219;150;27329;-78
2023/01/18 03:55:17;;;;;;;4.40;3.27;;;4.00;82.00;;;;;;931200;151;27384;-78
2023/01/18 03:57:46;;;;;;;3.13;2.63;;;4.10;82.20;;;;;;930732;151;27386;-78
2023/01/18 04:00:12;;;;;;;3.63;3.13;;;4.10;82.00;;;;;;931202;151;27456;-78
2023/01/18 04:02:39;;;;;;;3.33;3.03;;;4.10;82.00;;;;;;931512;151;27346;-78
2023/01/18 04:05:06;;;;;;;3.57;2.83;;;4.10;82.00;;;;;;930736;151;27337;-78
2023/01/18 04:07:32;;;;;;;3.53;3.23;;;4.10;82.00;;;;;;931630;151;27500;-78
2023/01/18 04:09:59;;;;;;;3.93;3.10;;;4.20;82.00;;;;;;930615;151;27377;-78
2023/01/18 04:12:25;;;;;;;3.03;2.80;;;4.20;82.00;;;;;;929620;151;27389;-78
2023/01/18 04:14:52;;;;;;;3.57;3.10;;;4.20;82.00;;;;;;931931;150;27884;-78
2023/01/18 04:17:19;;;;;;;3.57;2.97;;;4.20;82.10;;;;;;930478;151;27336;-79
2023/01/18 04:19:45;;;;;;;4.47;3.27;;;4.20;82.00;;;;;;930557;151;27381;-78
2023/01/18 04:22:12;;;;;;;3.60;3.30;;;4.20;82.10;;;;;;932176;150;27473;-78
2023/01/18 04:24:38;;;;;;;3.53;3.23;;;4.30;82.20;;;;;;935624;150;27441;-78
2023/01/18 04:27:05;;;;;;;3.60;3.30;;;4.30;82.10;;;;;;936275;150;27437;-78
2023/01/18 04:29:31;;;;;;;3.40;3.20;;;4.30;82.10;;;;;;935415;150;27390;-78
2023/01/18 04:31:58;;;;;;;3.50;3.20;;;4.40;82.10;;;;;;936832;150;27294;-78
2023/01/18 04:34:25;;;;;;;4.37;3.40;;;4.40;82.10;;;;;;936257;150;27446;-78
2023/01/18 04:36:51;;;;;;;3.60;3.27;;;4.40;82.10;;;;;;936831;150;27636;-78
2023/01/18 04:39:18;;;;;;;3.97;3.40;;;4.40;82.00;;;;;;936298;150;27447;-78
2023/01/18 04:41:44;;;;;;;3.83;3.30;;;4.40;82.10;;;;;;935216;150;27389;-78
2023/01/18 04:44:11;;;;;;;3.73;3.43;;;4.40;82.00;;;;;;935496;150;27349;-78
2023/01/18 04:46:38;;;;;;;3.60;3.30;;;4.50;82.80;;;;;;935671;150;27376;-78
2023/01/18 04:49:04;;;;;;;4.40;4.00;;;4.50;82.00;;;;;;937263;150;27338;-78
2023/01/18 04:51:31;;;;;;;3.73;3.43;;;4.50;82.00;;;;;;934478;150;27379;-78
2023/01/18 04:54:00;;;;;;;4.27;3.67;;;4.50;82.10;;;;;;936384;150;27443;-78
2023/01/18 04:56:27;;;;;;;4.47;3.60;;;4.50;82.20;;;;;;935092;150;27294;-78
2023/01/18 04:58:53;;;;;;;4.40;3.67;;;4.50;82.40;;;;;;936782;150;27461;-78
2023/01/18 05:01:20;;;;;;;3.87;3.47;;;4.50;82.60;;;;;;935303;150;27392;-78
2023/01/18 05:03:46;;;;;;;4.57;3.37;;;4.50;82.60;;;;;;937167;150;29722;-78
2023/01/18 05:06:14;;;;;;;4.70;4.30;;;4.50;82.80;;;;;;935902;150;27341;-78
2023/01/18 05:08:40;;;;;;;4.67;3.90;;;4.50;82.80;;;;;;935865;150;27455;-78
2023/01/18 05:11:06;;;;;;;5.93;4.20;;;4.50;82.80;;;;;;936834;150;27314;-78
2023/01/18 05:13:33;;;;;;;5.13;4.53;;;4.50;82.80;;;;;;935181;150;27427;-78
2023/01/18 05:15:59;;;;;;;6.03;5.10;;;4.50;82.80;;;;;;935627;150;27463;-78
2023/01/18 05:18:26;;;;;;;5.83;4.70;;;4.50;83.00;;;;;;935325;150;27443;-77
2023/01/18 05:20:53;;;;;;;4.67;4.27;;;4.50;83.10;;;;;;935362;150;27312;-78
2023/01/18 05:23:19;;;;;;;6.60;4.67;;;4.50;83.20;;;;;;932834;150;27450;-78
2023/01/18 05:25:46;;;;;;;5.27;4.63;;;4.40;83.30;;;;;;925636;152;27386;-78
2023/01/18 05:28:12;;;;;;;6.70;4.33;;;4.40;83.40;;;;;;925430;152;27355;-78
2023/01/18 05:30:39;;;;;;;4.63;3.90;;;4.40;83.50;;;;;;927392;152;27324;-78
2023/01/18 05:33:05;;;;;;;6.60;4.53;;;4.40;83.60;;;;;;925177;152;27433;-78
2023/01/18 05:35:32;;;;;;;5.93;4.27;;;4.40;83.70;;;;;;926223;152;27476;-77
2023/01/18 05:37:59;;;;;;;5.40;4.77;;;4.40;83.90;;;;;;924740;152;27801;-77
2023/01/18 05:40:25;;;;;;;6.20;4.83;;;4.30;83.90;;;;;;926919;152;27354;-78
2023/01/18 05:42:52;;;;;;;5.47;4.97;;;4.30;84.00;;;;;;926739;152;27467;-78
2023/01/18 05:45:18;;;;;;;7.17;4.70;;;4.30;84.00;;;;;;926557;152;27471;-78
2023/01/18 05:47:45;;;;;;;5.30;4.80;;;4.30;84.30;;;;;;925556;152;27468;-77
2023/01/18 05:50:12;;;;;;;6.03;4.73;;;4.20;84.30;;;;;;926031;152;27464;-78
2023/01/18 05:52:38;;;;;;;5.27;4.73;;;4.20;84.40;;;;;;926595;152;27282;-77
2023/01/18 05:55:05;;;;;;;6.23;4.80;;;4.20;84.60;;;;;;926666;152;27363;-78
2023/01/18 05:57:31;;;;;;;6.97;4.90;;;4.20;84.80;;;;;;927033;152;27378;-78
2023/01/18 05:59:58;;;;;;;6.30;4.80;;;4.20;85.00;;;;;;927422;150;27897;-77
2023/01/18 06:02:24;;;;;;;5.23;4.63;;;4.10;85.10;;;;;;926969;152;28758;-77
2023/01/18 06:04:51;;;;;;;5.03;4.60;;;4.10;85.40;;;;;;925744;152;27438;-78
2023/01/18 06:07:18;;;;;;;6.03;4.30;;;4.10;85.40;;;;;;926099;152;27381;-78
2023/01/18 06:09:44;;;;;;;8.03;5.50;;;4.10;86.10;;;;;;927772;152;27399;-78
2023/01/18 06:12:11;;;;;;;5.50;4.90;;;4.10;85.60;;;;;;927337;152;27708;-77
2023/01/18 06:14:37;;;;;;;7.03;4.57;;;4.10;85.60;;;;;;927614;152;27353;-78
2023/01/18 06:17:05;;;;;;;5.40;4.80;;;4.10;85.70;;;;;;926640;152;27470;-78
2023/01/18 06:19:31;;;;;;;5.80;4.37;;;4.10;85.70;;;;;;927350;152;27475;-78
2023/01/18 06:21:57;;;;;;;5.40;4.20;;;4.10;85.70;;;;;;926451;152;27437;-78
2023/01/18 06:24:24;;;;;;;6.33;4.23;;;4.10;85.60;;;;;;928339;151;27479;-78
2023/01/18 06:26:50;;;;;;;5.33;4.10;;;4.20;85.70;;;;;;931921;150;27417;-77
2023/01/18 06:29:17;;;;;;;5.00;4.10;;;4.10;85.70;;;;;;932118;151;27456;-78
2023/01/18 06:31:43;;;;;;;7.13;4.20;;;4.10;85.70;;;;;;932752;150;28141;-78
2023/01/18 06:34:10;;;;;;;4.70;3.87;;;4.10;85.60;;;;;;931159;151;27433;-78
2023/01/18 06:36:37;;;;;;;5.20;3.43;;;4.10;85.40;;;;;;930936;150;27377;-77
2023/01/18 06:39:03;;;;;;;4.67;4.10;;;4.10;85.30;;;;;;931781;151;27335;-78
2023/01/18 06:41:30;;;;;;;3.70;3.40;;;4.10;85.20;;;;;;931935;151;27460;-77
2023/01/18 06:43:56;;;;;;;3.67;3.37;;;4.20;85.20;;;;;;931922;151;27291;-78
2023/01/18 06:46:23;;;;;;;4.17;3.87;;;4.10;85.20;;;;;;932207;151;27394;-77
2023/01/18 06:48:50;;;;;;;4.43;4.03;;;4.10;85.10;;;;;;931891;151;27348;-78
2023/01/18 06:51:16;;;;;;;5.13;3.60;;;4.10;85.00;;;;;;931973;151;27354;-78
2023/01/18 06:56:09;;;;;;;3.83;3.50;;;4.10;85.00;;;;;;973156;143;37109;-78
2023/01/18 06:58:33;;;;;;;4.80;3.97;;;4.10;84.80;;;;;;960463;147;27335;-79
2023/01/18 07:00:59;;;;;;;5.80;3.60;;;4.10;84.70;;;;;;961797;147;27316;-78
2023/01/18 07:03:25;;;;;;;3.80;3.40;;;4.10;84.80;;;;;;961289;147;27297;-78
2023/01/18 07:05:55;;;;;;;4.73;3.83;;;4.10;84.80;;;;;;960313;147;27767;-78
2023/01/18 07:08:21;;;;;;;4.40;3.50;;;4.10;84.80;;;;;;960893;147;27377;-80
2023/01/18 07:10:48;;;;;;;4.97;3.57;;;4.10;84.60;;;;;;960986;146;27329;-79
2023/01/18 07:13:14;;;;;;;7.50;3.53;;;4.10;84.60;;;;;;961499;147;27469;-78
2023/01/18 07:15:41;;;;;;;3.77;3.47;;;4.10;84.80;;;;;;959280;147;27396;-79
2023/01/18 07:18:07;;;;;;;3.73;3.43;;;4.10;84.80;;;;;;961872;147;27327;-79
2023/01/18 07:20:34;;;;;;;4.60;3.27;;;4.10;84.90;;;;;;962773;146;27346;-79
2023/01/18 07:23:01;;;;;;;6.40;3.90;;;4.10;84.90;;;;;;959913;147;27460;-79
2023/01/18 07:25:28;;;;;;;3.63;3.33;;;4.10;85.00;;;;;;946454;147;27311;-79
2023/01/18 07:27:54;;;;;;;4.50;3.30;;;4.10;85.00;;;;;;944658;148;27425;-79
2023/01/18 07:30:20;;;;;;;3.93;3.53;;;4.20;85.10;;;;;;943551;149;27296;-80
2023/01/18 07:32:49;;;;;;;4.43;3.57;;;4.20;85.10;;;;;;943864;148;27380;-78
2023/01/18 07:35:14;;;;;;;5.40;4.00;;;4.20;85.00;;;;;;942453;148;27808;-78
2023/01/18 07:37:40;;;;;;;6.40;5.00;;;4.20;85.00;;;;;;944257;148;27284;-78
2023/01/18 07:40:10;;;;;;;7.43;5.00;;;4.20;85.00;;;;;;942426;149;27340;-80
2023/01/18 07:42:34;;;;;;;7.57;4.90;;;4.20;85.10;;;;;;943610;149;27368;-80
2023/01/18 07:45:00;;;;;;;8.13;4.97;;;4.20;85.10;;;;;;944161;149;28068;-78
2023/01/18 07:47:27;;;;;;;6.07;4.77;;;4.30;85.10;;;;;;944517;149;27350;-78
2023/01/18 07:49:53;;;;;;;3.53;3.23;;;4.30;85.10;;;;;;943041;149;27321;-80
2023/01/18 07:52:20;;;;;;;4.30;3.40;;;4.30;85.30;;;;;;944588;149;27313;-79
2023/01/18 07:54:46;;;;;;;4.07;3.50;;;4.30;85.30;;;;;;943986;148;27419;-79
2023/01/18 07:57:13;;;;;;;4.97;3.47;;;4.40;85.30;;;;;;944052;148;27416;-79
2023/01/18 07:59:40;;;;;;;3.73;3.27;;;4.40;85.30;;;;;;943719;149;27699;-79
2023/01/18 08:02:07;;;;;;;3.67;3.27;;;4.40;85.10;;;;;;942039;149;27352;-78
2023/01/18 08:04:33;;;;;;;4.27;3.27;;;4.50;85.10;;;;;;943821;148;27332;-80
2023/01/18 08:06:59;;;;;;;4.00;2.63;;;4.50;85.00;;;;;;943169;149;27755;-79
2023/01/18 08:09:26;;;;;;;3.90;3.40;;;4.50;85.00;;;;;;943078;149;27325;-79
2023/01/18 08:11:53;;;;;;;3.73;3.10;;;4.50;84.80;;;;;;943215;149;27372;-79
2023/01/18 08:14:19;;;;;;;4.67;2.93;;;4.60;84.70;;;;;;943667;149;27410;-79
2023/01/18 08:16:46;;;;;;;3.57;2.83;;;4.60;84.50;;;;;;942969;149;27335;-78
2023/01/18 08:19:12;;;;;;;3.83;2.90;;;4.60;84.30;;;;;;944106;149;27453;-78
2023/01/18 08:21:39;;;;;;;5.30;2.67;;;4.60;84.20;;;;;;942532;149;27876;-78
2023/01/18 08:24:05;;;;;;;3.67;2.87;;;4.60;84.00;;;;;;942782;149;27477;-79
2023/01/18 08:26:33;;;;;;;2.73;2.53;;;4.60;83.90;;;;;;943881;149;27795;-79
2023/01/18 08:28:59;;;;;;;4.53;3.23;;;4.70;83.70;;;;;;943326;149;27443;-79
2023/01/18 08:31:25;;;;;;;5.93;2.90;;;4.70;83.70;;;;;;943275;149;27265;-79
2023/01/18 08:33:52;;;;;;;3.23;2.70;;;4.70;83.70;;;;;;943430;149;27808;-78
2023/01/18 08:36:18;;;;;;;3.33;3.00;;;4.70;83.70;;;;;;943185;149;27417;-79
2023/01/18 08:38:51;;;;;;;3.60;2.87;;;4.70;83.70;;;;;;943716;149;27850;-80
2023/01/18 08:41:17;;;;;;;3.53;3.20;;;4.80;83.60;;;;;;943158;149;27269;-78
2023/01/18 08:43:46;;;;;;;3.63;2.67;;;4.80;83.50;;;;;;943330;149;27263;-78
2023/01/18 08:46:10;;;;;;;3.93;2.77;;;4.80;83.30;;;;;;943031;149;27370;-78
2023/01/18 08:48:37;;;;;;;3.87;2.57;;;4.80;83.20;;;;;;943872;149;27427;-79
2023/01/18 08:51:04;;;;;;;3.47;3.07;;;4.90;83.30;;;;;;943927;149;28005;-79
2023/01/18 08:53:30;;;;;;;3.93;2.90;;;4.90;83.20;;;;;;943535;149;27696;-78
2023/01/18 08:55:57;;;;;;;3.13;2.80;;;4.90;82.80;;;;;;941425;149;27887;-79
2023/01/18 08:58:24;;;;;;;3.63;3.17;;;5.00;82.70;;;;;;937356;149;27341;-79
2023/01/18 09:00:52;;;;;;;5.40;3.07;;;5.00;82.50;;;;;;938455;150;28572;-80
2023/01/18 09:03:20;;;;;;;3.37;3.07;;;5.00;82.40;;;;;;937150;150;27353;-80
2023/01/18 09:05:46;;;;;;;4.90;3.03;;;5.00;82.20;;;;;;936993;150;27311;-79
2023/01/18 09:08:13;;;;;;;3.40;3.10;;;5.00;82.10;;;;;;937100;150;27362;-79
2023/01/18 09:10:39;;;;;;;3.77;3.00;;;5.10;82.10;;;;;;937745;150;27357;-80
2023/01/18 09:13:06;;;;;;;5.43;3.07;;;5.10;82.10;;;;;;937464;150;27380;-78
2023/01/18 09:15:33;;;;;;;4.43;3.43;;;5.10;82.00;;;;;;938272;150;27290;-79
2023/01/18 09:18:04;;;;;;;3.67;3.37;;;5.10;81.80;;;;;;937620;150;27386;-78
2023/01/18 09:20:26;;;;;;;5.90;3.30;;;5.20;81.90;;;;;;936721;150;27438;-79
2023/01/18 09:22:52;;;;;;;5.83;3.77;;;5.20;81.70;;;;;;938060;150;27472;-79
2023/01/18 09:25:19;;;;;;;3.10;2.80;;;5.20;81.60;;;;;;937411;149;29538;-78
2023/01/18 09:27:45;;;;;;;4.00;3.43;;;5.20;81.40;;;;;;934522;149;27338;-79
2023/01/18 09:30:14;;;;;;;3.63;3.00;;;5.30;81.40;;;;;;937806;150;27337;-80
2023/01/18 09:32:39;;;;;;;3.83;3.10;;;5.30;81.40;;;;;;936480;149;27446;-80
2023/01/18 09:35:05;;;;;;;4.27;3.53;;;5.30;81.30;;;;;;936993;150;27334;-78
2023/01/18 09:37:32;;;;;;;5.73;3.70;;;5.30;81.30;;;;;;936556;149;27321;-79
2023/01/18 09:39:59;;;;;;;6.10;3.90;;;5.40;81.20;;;;;;936584;150;27312;-79
2023/01/18 09:42:25;;;;;;;6.67;3.63;;;5.40;81.10;;;;;;936847;150;27395;-79
2023/01/18 09:44:51;;;;;;;6.00;3.50;;;5.40;81.00;;;;;;936282;150;27349;-79
2023/01/18 09:47:20;;;;;;;6.33;3.80;;;5.40;80.70;;;;;;937012;150;28330;-79
2023/01/18 09:49:51;;;;;;;6.13;4.10;;;5.50;80.70;;;;;;934713;149;27348;-80
2023/01/18 09:52:18;;;;;;;5.53;3.40;;;5.50;80.80;;;;;;936866;150;27370;-80
2023/01/18 09:54:44;;;;;;;4.37;3.73;;;5.50;80.80;;;;;;937203;150;27346;-79
2023/01/18 09:57:28;;;;;;;4.63;3.67;;;5.50;80.90;;;;;;936138;149;27407;-79
2023/01/18 09:59:55;;;;;;;4.17;3.53;;;5.50;81.00;;;;;;936357;150;27273;-80
2023/01/18 10:02:24;;;;;;;3.53;3.23;;;5.60;81.00;;;;;;937368;150;27298;-79
2023/01/18 10:04:48;;;;;;;7.20;3.87;;;5.60;80.70;;;;;;936708;150;27358;-81
2023/01/18 10:07:15;;;;;;;10.57;4.13;;;5.60;80.50;;;;;;936641;149;27377;-79
2023/01/18 10:09:41;;;;;;;5.23;3.70;;;5.70;80.60;;;;;;937199;150;27316;-79
2023/01/18 10:12:42;;;;;;;7.07;4.10;;;5.70;80.50;;;;;;936539;150;27314;-79
2023/01/18 10:15:21;;;;;;;5.90;4.20;;;5.70;80.30;;;;;;911103;156;27367;-78
2023/01/18 10:17:47;;;;;;;5.70;4.00;;;5.80;80.30;;;;;;929231;149;27423;-79
2023/01/18 10:20:16;;;;;;;4.70;4.07;;;5.80;80.30;;;;;;937561;149;27370;-80
2023/01/18 10:22:48;;;;;;;6.17;4.00;;;5.80;80.30;;;;;;937313;150;29340;-78
2023/01/18 10:25:15;;;;;;;5.20;4.20;;;5.80;79.40;;;;;;937097;150;27910;-79
2023/01/18 10:28:03;;;;;;;5.73;4.07;;;5.90;80.30;;;;;;936219;149;27268;-79
2023/01/18 10:30:32;;;;;;;6.33;4.17;;;5.90;80.10;;;;;;915691;150;27395;-82
2023/01/18 10:32:59;;;;;;;4.67;4.27;;;5.90;80.00;;;;;;938069;150;27319;-79
2023/01/18 10:35:31;;;;;;;4.57;3.73;;;6.00;80.10;;;;;;937437;150;27350;-80
2023/01/18 10:38:03;;;;;;;4.63;3.60;;;6.00;79.90;;;;;;935600;149;27337;-79
2023/01/18 10:40:30;;;;;;;8.03;4.27;;;6.10;79.90;;;;;;937238;150;27468;-80
2023/01/18 10:42:58;;;;;;;5.50;3.67;;;6.10;79.70;;;;;;937208;150;28466;-80
2023/01/18 10:45:23;;;;;;;7.90;3.90;;;6.20;79.60;;;;;;936690;150;27361;-80
2023/01/18 10:47:50;;;;;;;5.47;3.60;;;6.20;79.50;;;;;;936901;149;27330;-79
2023/01/18 10:50:19;;;;;;;5.53;3.97;;;6.20;79.30;;;;;;937952;150;27365;-80
2023/01/18 10:52:45;;;;;;;4.20;3.53;;;6.30;79.30;;;;;;936788;149;27359;-80
2023/01/18 10:55:15;;;;;;;5.00;4.00;;;6.30;79.20;;;;;;937325;150;27310;-80
2023/01/18 10:57:53;;;;;;;7.13;3.90;;;6.30;79.20;;;;;;937723;149;27388;-80
2023/01/18 11:00:22;;;;;;;6.27;4.33;;;6.40;79.10;;;;;;938379;150;27367;-80
2023/01/18 11:02:49;;;;;;;6.43;4.03;;;6.40;78.90;;;;;;937052;149;27446;-79
2023/01/18 11:05:29;;;;;;;7.37;3.80;;;6.40;78.60;;;;;;938033;149;27323;-80
2023/01/18 11:08:10;;;;;;;4.90;3.93;;;6.40;78.50;;;;;;936892;149;27327;-81
2023/01/18 11:10:36;;;;;;;4.63;4.07;;;6.50;78.50;;;;;;936449;150;27382;-80
2023/01/18 11:13:03;;;;;;;5.67;4.50;;;6.50;78.50;;;;;;936470;150;27377;-79
2023/01/18 11:15:30;;;;;;;5.53;4.13;;;6.60;78.40;;;;;;937645;150;27351;-79
2023/01/18 11:17:56;;;;;;;7.80;4.30;;;6.60;78.40;;;;;;935972;150;27320;-79
2023/01/18 11:20:24;;;;;;;5.60;4.77;;;6.60;78.40;;;;;;937491;150;27341;-81
2023/01/18 11:22:58;;;;;;;7.27;4.70;;;6.70;78.30;;;;;;936978;150;27363;-79
2023/01/18 11:25:27;;;;;;;6.10;4.60;;;6.70;78.10;;;;;;935679;150;27321;-78
2023/01/18 11:27:54;;;;;;;5.63;4.17;;;6.80;78.00;;;;;;927606;149;27537;-79
2023/01/18 11:30:20;;;;;;;7.03;4.60;;;6.80;77.80;;;;;;936299;149;27353;-81
2023/01/18 11:32:47;;;;;;;5.00;3.90;;;6.90;77.70;;;;;;937832;150;27339;-79
2023/01/18 11:35:32;;;;;;;7.77;4.53;;;6.80;77.60;;;;;;937312;150;27350;-80
2023/01/18 11:37:58;;;;;;;5.97;4.20;;;6.90;77.30;;;;;;937325;149;27352;-79
2023/01/18 11:40:28;;;;;;;5.53;4.00;;;6.90;77.00;;;;;;936340;149;27258;-79
2023/01/18 11:42:58;;;;;;;3.77;3.30;;;6.90;76.80;;;;;;937259;150;27397;-81
2023/01/18 11:45:34;;;;;;;8.47;3.80;;;6.90;76.80;;;;;;934397;149;27346;-79
2023/01/18 11:48:05;;;;;;;4.90;3.83;;;6.90;76.70;;;;;;936292;149;27269;-79
2023/01/18 11:50:44;;;;;;;5.93;3.67;;;6.90;76.70;;;;;;937478;150;27404;-79
2023/01/18 11:53:40;;;;;;;3.97;3.50;;;6.90;76.30;;;;;;936104;149;27428;-79
2023/01/18 11:56:07;;;;;;;4.27;3.40;;;6.90;76.20;;;;;;937773;150;27376;-81
2023/01/18 11:58:34;;;;;;;4.20;3.70;;;6.90;76.40;;;;;;936313;148;27760;-79
2023/01/18 12:01:06;;;;;;;4.20;3.20;;;6.90;76.40;;;;;;946958;148;27328;-80
2023/01/18 12:03:57;;;;;;;7.50;3.60;;;6.90;76.30;;;;;;947629;148;27319;-80
2023/01/18 12:06:37;;;;;;;4.90;2.77;;;7.00;76.80;;;;;;948034;148;27344;-81
2023/01/18 12:09:05;;;;;;;4.77;3.37;;;7.00;76.10;;;;;;946136;148;27363;-79
2023/01/18 12:11:56;;;;;;;4.50;3.00;;;7.00;76.00;;;;;;946252;148;27398;-79
2023/01/18 12:14:29;;;;;;;2.97;2.67;;;7.10;75.90;;;;;;947142;148;27332;-81
2023/01/18 12:17:16;;;;;;;4.87;3.03;;;7.10;75.80;;;;;;947079;148;27356;-82
2023/01/18 12:20:13;;;;;;;4.97;3.40;;;7.10;75.70;;;;;;947587;148;27399;-79
2023/01/18 12:22:43;;;;;;;3.43;3.10;;;7.10;75.60;;;;;;945529;148;27884;-80
2023/01/18 12:25:18;;;;;;;4.47;3.23;;;7.20;75.60;;;;;;945525;148;27442;-80
2023/01/18 12:27:50;;;;;;;3.27;2.97;;;7.30;75.40;;;;;;946817;148;27336;-80
2023/01/18 12:30:35;;;;;;;4.23;3.30;;;7.30;75.20;;;;;;946546;148;27372;-80
2023/01/18 12:33:05;;;;;;;4.97;3.37;;;7.30;75.00;;;;;;944644;148;27348;-79
2023/01/18 12:35:40;;;;;;;5.57;3.20;;;7.40;75.00;;;;;;945387;148;27371;-79
2023/01/18 12:38:24;;;;;;;4.30;3.07;;;7.40;74.60;;;;;;945789;148;28091;-80
2023/01/18 12:41:10;;;;;;;5.47;3.10;;;7.40;74.30;;;;;;947427;148;27431;-80
2023/01/18 12:43:53;;;;;;;6.17;3.07;;;7.40;74.40;;;;;;947704;148;27748;-80
2023/01/18 12:46:19;;;;;;;2.83;2.53;;;7.50;74.20;;;;;;947617;148;27438;-79
2023/01/18 12:48:46;;;;;;;4.90;3.00;;;7.50;73.90;;;;;;947275;148;27288;-82
2023/01/18 12:51:15;;;;;;;3.73;2.77;;;7.50;73.70;;;;;;937209;149;27375;-79
2023/01/18 12:53:48;;;;;;;3.57;2.60;;;7.50;73.30;;;;;;937170;149;27916;-81
2023/01/18 12:56:18;;;;;;;4.53;2.77;;;7.50;73.10;;;;;;935032;149;27370;-82
2023/01/18 12:58:43;;;;;;;4.27;2.10;;;7.50;72.60;;;;;;936427;149;28509;-80
2023/01/18 13:01:10;;;;;;;4.00;2.10;;;7.40;72.30;;;;;;948852;148;27319;-80
2023/01/18 13:03:42;;;;;;;2.03;1.83;;;7.40;72.00;;;;;;948942;148;27858;-79
2023/01/18 13:06:10;;;;;;;2.33;2.13;;;7.40;72.50;;;;;;949398;148;27374;-77
2023/01/18 13:08:39;;;;;;;3.30;2.03;;;7.30;71.70;;;;;;951282;148;27412;-79
2023/01/18 13:11:13;;;;;;;3.90;2.03;;;7.30;71.60;;;;;;950418;148;27392;-80
2023/01/18 13:13:40;;;;;;;1.97;1.77;;;7.20;71.30;;;;;;949251;148;27474;-76
2023/01/18 13:16:21;;;;;;;2.50;2.00;;;7.20;71.20;;;;;;949809;148;27463;-80
2023/01/18 13:18:51;;;;;;;2.87;2.00;;;7.10;71.10;;;;;;949777;148;27318;-76
2023/01/18 13:21:24;;;;;;;2.37;1.93;;;7.10;71.20;;;;;;947812;148;28175;-77
2023/01/18 13:23:52;;;;;;;3.77;1.80;;;7.00;71.30;;;;;;926722;150;27547;-80
2023/01/18 13:26:28;;;;;;;5.07;2.40;;;7.00;71.50;;;;;;935146;150;27855;-79
2023/01/18 13:29:09;;;;;;;3.73;2.40;;;7.00;71.60;;;;;;952732;148;28106;-80
2023/01/18 13:31:36;;;;;;;2.23;2.03;;;7.00;71.70;;;;;;952169;148;27814;-81
2023/01/18 13:34:03;;;;;;;2.23;1.70;;;7.00;71.90;;;;;;950328;147;27355;-80
2023/01/18 13:36:30;;;;;;;2.47;2.00;;;7.00;71.70;;;;;;936143;150;27402;-81
2023/01/18 13:38:56;;;;;;;2.40;1.90;;;7.10;71.50;;;;;;925880;150;27507;-81
2023/01/18 13:41:23;;;;;;;4.60;1.90;;;7.10;71.40;;;;;;936801;149;27395;-81